sensor_id;sensor_type;location;lat;lon;timestamp;temperature;humidity
22153;DHT22;11242;50.536;12.688;2023-09-19T00:01:08;15.80;99.90
22153;DHT22;11242;50.536;12.688;2023-09-19T00:03:35;15.70;99.90
22153;DHT22;11242;50.536;12.688;2023-09-19T00:06:04;15.70;99.90
22153;DHT22;11242;50.536;12.688;2023-09-19T00:08:31;15.80;99.90
22153;DHT22;11242;50.536;12.688;2023-09-19T00:10:56;15.80;99.90
22153;DHT22;11242;50.536;12.688;2023-09-19T00:13:29;15.70;99.90
22153;DHT22;11242;50.536;12.688;2023-09-19T00:15:56;15.70;99.90
22153;DHT22;11242;50.536;12.688;2023-09-19T00:18:25;15.70;99.90
22153;DHT22;11242;50.536;12.688;2023-09-19T00:21:01;15.80;99.90
22153;DHT22;11242;50.536;12.688;2023-09-19T00:23:27;15.70;99.90
22153;DHT22;11242;50.536;12.688;2023-09-19T00:25:53;15.60;99.90
22153;DHT22;11242;50.536;12.688;2023-09-19T00:28:22;15.70;99.90
22153;DHT22;11242;50.536;12.688;2023-09-19T00:30:48;15.70;99.90
22153;DHT22;11242;50.536;12.688;2023-09-19T00:33:17;15.70;99.90
22153;DHT22;11242;50.536;12.688;2023-09-19T00:35:51;15.70;99.90
22153;DHT22;11242;50.536;12.688;2023-09-19T00:38:18;15.60;99.90
22153;DHT22;11242;50.536;12.688;2023-09-19T00:40:47;15.50;99.90
22153;DHT22;11242;50.536;12.688;2023-09-19T00:43:12;15.40;99.90
22153;DHT22;11242;50.536;12.688;2023-09-19T00:45:39;15.40;99.90
22153;DHT22;11242;50.536;12.688;2023-09-19T00:48:08;15.50;99.90
22153;DHT22;11242;50.536;12.688;2023-09-19T00:50:35;15.50;99.90
22153;DHT22;11242;50.536;12.688;2023-09-19T00:53:01;15.40;99.90
22153;DHT22;11242;50.536;12.688;2023-09-19T00:55:28;15.30;99.90
22153;DHT22;11242;50.536;12.688;2023-09-19T00:57:56;15.30;99.90
22153;DHT22;11242;50.536;12.688;2023-09-19T01:00:22;15.40;99.90
22153;DHT22;11242;50.536;12.688;2023-09-19T01:02:49;15.40;99.90
22153;DHT22;11242;50.536;12.688;2023-09-19T01:05:15;15.40;99.90
22153;DHT22;11242;50.536;12.688;2023-09-19T01:07:41;15.40;99.90
22153;DHT22;11242;50.536;12.688;2023-09-19T01:10:09;15.40;99.90
22153;DHT22;11242;50.536;12.688;2023-09-19T01:32:08;15.20;99.90
22153;DHT22;11242;50.536;12.688;2023-09-19T01:34:56;15.20;99.90
22153;DHT22;11242;50.536;12.688;2023-09-19T01:37:24;15.30;99.90
22153;DHT22;11242;50.536;12.688;2023-09-19T01:40:20;15.20;99.90
22153;DHT22;11242;50.536;12.688;2023-09-19T01:42:59;15.20;99.90
22153;DHT22;11242;50.536;12.688;2023-09-19T01:48:26;15.20;99.90
22153;DHT22;11242;50.536;12.688;2023-09-19T01:51:06;15.10;99.90
22153;DHT22;11242;50.536;12.688;2023-09-19T01:53:58;15.00;99.90
22153;DHT22;11242;50.536;12.688;2023-09-19T01:56:34;15.00;99.90
22153;DHT22;11242;50.536;12.688;2023-09-19T01:59:11;15.00;99.90
22153;DHT22;11242;50.536;12.688;2023-09-19T02:01:39;15.00;99.90
22153;DHT22;11242;50.536;12.688;2023-09-19T02:04:07;15.00;99.90
22153;DHT22;11242;50.536;12.688;2023-09-19T02:06:33;14.90;99.90
22153;DHT22;11242;50.536;12.688;2023-09-19T02:08:59;14.90;99.90
22153;DHT22;11242;50.536;12.688;2023-09-19T02:11:25;14.90;99.90
22153;DHT22;11242;50.536;12.688;2023-09-19T02:13:51;14.90;99.90
22153;DHT22;11242;50.536;12.688;2023-09-19T02:16:20;14.80;99.90
22153;DHT22;11242;50.536;12.688;2023-09-19T02:18:50;14.80;99.90
22153;DHT22;11242;50.536;12.688;2023-09-19T02:21:17;14.80;99.90
22153;DHT22;11242;50.536;12.688;2023-09-19T02:23:43;14.80;99.90
22153;DHT22;11242;50.536;12.688;2023-09-19T02:26:09;14.80;99.90
22153;DHT22;11242;50.536;12.688;2023-09-19T02:28:35;14.80;99.90
22153;DHT22;11242;50.536;12.688;2023-09-19T02:31:01;14.70;99.90
22153;DHT22;11242;50.536;12.688;2023-09-19T02:33:27;14.70;99.90
22153;DHT22;11242;50.536;12.688;2023-09-19T02:35:56;14.70;99.90
22153;DHT22;11242;50.536;12.688;2023-09-19T02:38:26;14.60;99.90
22153;DHT22;11242;50.536;12.688;2023-09-19T02:40:53;14.70;99.90
22153;DHT22;11242;50.536;12.688;2023-09-19T02:43:19;14.70;99.90
22153;DHT22;11242;50.536;12.688;2023-09-19T02:45:48;14.80;99.90
22153;DHT22;11242;50.536;12.688;2023-09-19T02:48:19;14.70;99.90
22153;DHT22;11242;50.536;12.688;2023-09-19T02:50:49;14.70;99.90
22153;DHT22;11242;50.536;12.688;2023-09-19T02:53:14;14.70;99.90
22153;DHT22;11242;50.536;12.688;2023-09-19T02:55:40;14.70;99.90
22153;DHT22;11242;50.536;12.688;2023-09-19T02:58:06;14.80;99.90
22153;DHT22;11242;50.536;12.688;2023-09-19T03:00:37;14.80;99.90
22153;DHT22;11242;50.536;12.688;2023-09-19T03:03:03;14.80;99.90
22153;DHT22;11242;50.536;12.688;2023-09-19T03:05:31;14.80;99.90
22153;DHT22;11242;50.536;12.688;2023-09-19T03:07:58;14.70;99.90
22153;DHT22;11242;50.536;12.688;2023-09-19T03:10:26;14.70;99.90
22153;DHT22;11242;50.536;12.688;2023-09-19T03:12:53;14.60;99.90
22153;DHT22;11242;50.536;12.688;2023-09-19T03:15:19;14.60;99.90
22153;DHT22;11242;50.536;12.688;2023-09-19T03:17:48;14.70;99.90
22153;DHT22;11242;50.536;12.688;2023-09-19T03:20:18;14.70;99.90
22153;DHT22;11242;50.536;12.688;2023-09-19T03:22:46;14.60;99.90
22153;DHT22;11242;50.536;12.688;2023-09-19T03:25:13;14.60;99.90
22153;DHT22;11242;50.536;12.688;2023-09-19T03:27:41;14.70;99.90
22153;DHT22;11242;50.536;12.688;2023-09-19T03:30:07;14.60;99.90
22153;DHT22;11242;50.536;12.688;2023-09-19T03:32:35;14.60;99.90
22153;DHT22;11242;50.536;12.688;2023-09-19T03:35:02;14.60;99.90
22153;DHT22;11242;50.536;12.688;2023-09-19T03:37:31;14.70;99.90
22153;DHT22;11242;50.536;12.688;2023-09-19T03:39:57;14.60;99.90
22153;DHT22;11242;50.536;12.688;2023-09-19T03:42:23;14.60;99.90
22153;DHT22;11242;50.536;12.688;2023-09-19T03:44:52;14.60;99.90
22153;DHT22;11242;50.536;12.688;2023-09-19T03:47:18;14.60;99.90
22153;DHT22;11242;50.536;12.688;2023-09-19T03:49:45;14.50;99.90
22153;DHT22;11242;50.536;12.688;2023-09-19T03:52:10;14.50;99.90
22153;DHT22;11242;50.536;12.688;2023-09-19T03:54:36;14.40;99.90
22153;DHT22;11242;50.536;12.688;2023-09-19T03:57:02;14.30;99.90
22153;DHT22;11242;50.536;12.688;2023-09-19T03:59:30;14.30;99.90
22153;DHT22;11242;50.536;12.688;2023-09-19T04:01:55;14.40;99.90
22153;DHT22;11242;50.536;12.688;2023-09-19T04:04:22;14.30;99.90
22153;DHT22;11242;50.536;12.688;2023-09-19T04:06:53;14.40;99.90
22153;DHT22;11242;50.536;12.688;2023-09-19T04:09:18;14.30;99.90
22153;DHT22;11242;50.536;12.688;2023-09-19T04:11:44;14.40;99.90
22153;DHT22;11242;50.536;12.688;2023-09-19T04:14:10;14.30;99.90
22153;DHT22;11242;50.536;12.688;2023-09-19T04:16:36;14.20;99.90
22153;DHT22;11242;50.536;12.688;2023-09-19T04:19:02;14.20;99.90
22153;DHT22;11242;50.536;12.688;2023-09-19T04:21:29;14.20;99.90
22153;DHT22;11242;50.536;12.688;2023-09-19T04:23:55;14.20;99.90
22153;DHT22;11242;50.536;12.688;2023-09-19T04:26:20;14.20;99.90
22153;DHT22;11242;50.536;12.688;2023-09-19T04:28:47;14.10;99.90
22153;DHT22;11242;50.536;12.688;2023-09-19T04:31:12;14.20;99.90
22153;DHT22;11242;50.536;12.688;2023-09-19T04:33:39;14.30;99.90
22153;DHT22;11242;50.536;12.688;2023-09-19T04:36:05;14.30;99.90
22153;DHT22;11242;50.536;12.688;2023-09-19T04:38:32;14.50;99.90
22153;DHT22;11242;50.536;12.688;2023-09-19T04:40:58;14.60;99.90
22153;DHT22;11242;50.536;12.688;2023-09-19T04:43:24;14.70;99.90
22153;DHT22;11242;50.536;12.688;2023-09-19T04:45:50;14.80;99.90
22153;DHT22;11242;50.536;12.688;2023-09-19T04:48:16;14.80;99.90
22153;DHT22;11242;50.536;12.688;2023-09-19T04:50:42;14.90;99.90
22153;DHT22;11242;50.536;12.688;2023-09-19T04:53:08;14.90;99.90
22153;DHT22;11242;50.536;12.688;2023-09-19T04:55:33;15.00;99.90
22153;DHT22;11242;50.536;12.688;2023-09-19T04:57:59;15.00;99.90
22153;DHT22;11242;50.536;12.688;2023-09-19T05:00:25;15.00;99.90
22153;DHT22;11242;50.536;12.688;2023-09-19T05:02:55;15.10;99.90
22153;DHT22;11242;50.536;12.688;2023-09-19T05:05:21;15.10;99.90
22153;DHT22;11242;50.536;12.688;2023-09-19T05:07:48;15.20;99.90
22153;DHT22;11242;50.536;12.688;2023-09-19T05:10:14;15.20;99.90
22153;DHT22;11242;50.536;12.688;2023-09-19T05:12:40;15.30;99.90
22153;DHT22;11242;50.536;12.688;2023-09-19T05:15:07;15.20;99.90
22153;DHT22;11242;50.536;12.688;2023-09-19T05:17:36;15.20;99.90
22153;DHT22;11242;50.536;12.688;2023-09-19T05:20:03;15.30;99.90
22153;DHT22;11242;50.536;12.688;2023-09-19T05:22:31;15.30;99.90
22153;DHT22;11242;50.536;12.688;2023-09-19T05:24:58;15.30;99.90
22153;DHT22;11242;50.536;12.688;2023-09-19T05:27:24;15.30;99.90
22153;DHT22;11242;50.536;12.688;2023-09-19T05:29:49;15.40;99.90
22153;DHT22;11242;50.536;12.688;2023-09-19T05:32:18;15.40;99.90
22153;DHT22;11242;50.536;12.688;2023-09-19T05:34:45;15.40;99.90
22153;DHT22;11242;50.536;12.688;2023-09-19T05:37:11;15.40;99.90
22153;DHT22;11242;50.536;12.688;2023-09-19T05:39:36;15.50;99.90
22153;DHT22;11242;50.536;12.688;2023-09-19T05:42:03;15.50;99.90
22153;DHT22;11242;50.536;12.688;2023-09-19T05:44:29;15.40;99.90
22153;DHT22;11242;50.536;12.688;2023-09-19T05:46:54;15.40;99.90
22153;DHT22;11242;50.536;12.688;2023-09-19T05:49:22;15.40;99.90
22153;DHT22;11242;50.536;12.688;2023-09-19T05:51:47;15.50;99.90
22153;DHT22;11242;50.536;12.688;2023-09-19T05:54:13;15.60;99.90
22153;DHT22;11242;50.536;12.688;2023-09-19T05:56:38;16.00;99.90
22153;DHT22;11242;50.536;12.688;2023-09-19T05:59:04;16.10;99.90
22153;DHT22;11242;50.536;12.688;2023-09-19T06:01:31;16.10;99.90
22153;DHT22;11242;50.536;12.688;2023-09-19T06:03:58;16.00;99.90
22153;DHT22;11242;50.536;12.688;2023-09-19T06:06:25;16.00;99.90
22153;DHT22;11242;50.536;12.688;2023-09-19T06:08:51;16.00;99.90
22153;DHT22;11242;50.536;12.688;2023-09-19T06:11:17;16.10;99.90
22153;DHT22;11242;50.536;12.688;2023-09-19T06:13:45;16.20;99.90
22153;DHT22;11242;50.536;12.688;2023-09-19T06:16:12;16.70;99.90
22153;DHT22;11242;50.536;12.688;2023-09-19T06:18:38;17.60;99.90
22153;DHT22;11242;50.536;12.688;2023-09-19T06:21:04;17.70;99.90
22153;DHT22;11242;50.536;12.688;2023-09-19T06:23:34;17.40;99.90
22153;DHT22;11242;50.536;12.688;2023-09-19T06:26:00;17.40;99.90
22153;DHT22;11242;50.536;12.688;2023-09-19T06:28:26;17.30;99.90
22153;DHT22;11242;50.536;12.688;2023-09-19T06:30:54;17.60;99.90
22153;DHT22;11242;50.536;12.688;2023-09-19T06:33:19;17.70;99.90
22153;DHT22;11242;50.536;12.688;2023-09-19T06:35:47;17.60;99.90
22153;DHT22;11242;50.536;12.688;2023-09-19T06:38:13;17.50;99.90
22153;DHT22;11242;50.536;12.688;2023-09-19T06:40:40;17.60;99.90
22153;DHT22;11242;50.536;12.688;2023-09-19T06:43:10;17.50;99.90
22153;DHT22;11242;50.536;12.688;2023-09-19T06:45:36;17.40;99.90
22153;DHT22;11242;50.536;12.688;2023-09-19T06:48:01;17.20;99.90
22153;DHT22;11242;50.536;12.688;2023-09-19T06:50:28;17.30;99.90
22153;DHT22;11242;50.536;12.688;2023-09-19T06:52:56;17.20;99.90
22153;DHT22;11242;50.536;12.688;2023-09-19T06:55:22;17.30;99.90
22153;DHT22;11242;50.536;12.688;2023-09-19T06:57:53;17.10;99.90
22153;DHT22;11242;50.536;12.688;2023-09-19T07:00:22;17.00;99.90
22153;DHT22;11242;50.536;12.688;2023-09-19T07:02:59;17.00;99.90
22153;DHT22;11242;50.536;12.688;2023-09-19T07:05:32;17.00;99.90
22153;DHT22;11242;50.536;12.688;2023-09-19T07:08:01;17.00;99.90
22153;DHT22;11242;50.536;12.688;2023-09-19T07:10:27;16.80;99.90
22153;DHT22;11242;50.536;12.688;2023-09-19T07:13:01;16.80;99.90
22153;DHT22;11242;50.536;12.688;2023-09-19T07:15:28;16.80;99.90
22153;DHT22;11242;50.536;12.688;2023-09-19T07:17:56;16.90;99.90
22153;DHT22;11242;50.536;12.688;2023-09-19T07:20:22;17.00;99.90
22153;DHT22;11242;50.536;12.688;2023-09-19T07:22:51;17.10;99.90
22153;DHT22;11242;50.536;12.688;2023-09-19T07:25:18;17.20;99.90
22153;DHT22;11242;50.536;12.688;2023-09-19T07:27:44;17.60;99.90
22153;DHT22;11242;50.536;12.688;2023-09-19T07:30:11;18.30;99.90
22153;DHT22;11242;50.536;12.688;2023-09-19T07:32:37;18.20;99.90
22153;DHT22;11242;50.536;12.688;2023-09-19T07:35:04;18.00;99.90
22153;DHT22;11242;50.536;12.688;2023-09-19T07:37:31;18.10;99.90
22153;DHT22;11242;50.536;12.688;2023-09-19T07:39:59;18.50;99.90
22153;DHT22;11242;50.536;12.688;2023-09-19T07:42:26;18.30;99.90
22153;DHT22;11242;50.536;12.688;2023-09-19T07:44:52;18.50;99.90
22153;DHT22;11242;50.536;12.688;2023-09-19T07:47:22;18.50;99.90
22153;DHT22;11242;50.536;12.688;2023-09-19T07:49:47;18.50;99.90
22153;DHT22;11242;50.536;12.688;2023-09-19T07:52:13;18.70;99.90
22153;DHT22;11242;50.536;12.688;2023-09-19T07:54:39;19.50;99.90
22153;DHT22;11242;50.536;12.688;2023-09-19T07:57:10;19.50;99.90
22153;DHT22;11242;50.536;12.688;2023-09-19T07:59:36;20.10;99.90
22153;DHT22;11242;50.536;12.688;2023-09-19T08:02:04;21.20;99.90
22153;DHT22;11242;50.536;12.688;2023-09-19T08:04:30;22.90;99.90
22153;DHT22;11242;50.536;12.688;2023-09-19T08:06:58;23.30;99.90
22153;DHT22;11242;50.536;12.688;2023-09-19T08:09:24;22.70;99.90
22153;DHT22;11242;50.536;12.688;2023-09-19T08:11:50;23.70;99.90
22153;DHT22;11242;50.536;12.688;2023-09-19T08:14:16;23.00;99.90
22153;DHT22;11242;50.536;12.688;2023-09-19T08:16:41;23.60;99.90
22153;DHT22;11242;50.536;12.688;2023-09-19T08:19:09;24.30;98.10
22153;DHT22;11242;50.536;12.688;2023-09-19T08:21:36;23.40;95.20
22153;DHT22;11242;50.536;12.688;2023-09-19T08:24:02;23.40;95.10
22153;DHT22;11242;50.536;12.688;2023-09-19T08:26:30;23.10;95.50
22153;DHT22;11242;50.536;12.688;2023-09-19T08:28:57;21.70;98.20
22153;DHT22;11242;50.536;12.688;2023-09-19T08:31:22;21.60;99.90
22153;DHT22;11242;50.536;12.688;2023-09-19T08:33:49;23.30;97.00
22153;DHT22;11242;50.536;12.688;2023-09-19T08:36:17;24.40;93.10
22153;DHT22;11242;50.536;12.688;2023-09-19T08:38:42;24.70;92.10
22153;DHT22;11242;50.536;12.688;2023-09-19T08:41:08;23.10;93.20
22153;DHT22;11242;50.536;12.688;2023-09-19T08:43:35;22.60;95.40
22153;DHT22;11242;50.536;12.688;2023-09-19T08:46:10;23.20;94.80
22153;DHT22;11242;50.536;12.688;2023-09-19T08:48:42;24.50;92.60
22153;DHT22;11242;50.536;12.688;2023-09-19T08:51:21;23.70;90.80
22153;DHT22;11242;50.536;12.688;2023-09-19T08:53:58;23.00;92.70
22153;DHT22;11242;50.536;12.688;2023-09-19T08:56:29;22.60;94.20
22153;DHT22;11242;50.536;12.688;2023-09-19T08:59:02;23.70;92.70
22153;DHT22;11242;50.536;12.688;2023-09-19T09:01:29;23.30;93.20
22153;DHT22;11242;50.536;12.688;2023-09-19T09:03:56;23.30;92.40
22153;DHT22;11242;50.536;12.688;2023-09-19T09:06:22;22.40;93.80
22153;DHT22;11242;50.536;12.688;2023-09-19T09:08:50;21.60;94.50
22153;DHT22;11242;50.536;12.688;2023-09-19T09:11:16;21.20;97.10
22153;DHT22;11242;50.536;12.688;2023-09-19T09:13:44;20.30;96.30
22153;DHT22;11242;50.536;12.688;2023-09-19T09:16:10;19.70;98.20
22153;DHT22;11242;50.536;12.688;2023-09-19T09:18:36;19.30;99.70
22153;DHT22;11242;50.536;12.688;2023-09-19T09:21:01;19.10;99.90
22153;DHT22;11242;50.536;12.688;2023-09-19T09:23:30;18.90;99.90
22153;DHT22;11242;50.536;12.688;2023-09-19T09:25:58;18.80;99.90
22153;DHT22;11242;50.536;12.688;2023-09-19T09:28:33;18.50;99.90
22153;DHT22;11242;50.536;12.688;2023-09-19T09:31:01;18.60;99.90
22153;DHT22;11242;50.536;12.688;2023-09-19T09:33:34;18.70;99.90
22153;DHT22;11242;50.536;12.688;2023-09-19T09:36:01;19.10;99.90
22153;DHT22;11242;50.536;12.688;2023-09-19T09:38:47;19.30;99.90
22153;DHT22;11242;50.536;12.688;2023-09-19T09:41:15;19.60;99.90
22153;DHT22;11242;50.536;12.688;2023-09-19T09:43:53;19.80;99.90
22153;DHT22;11242;50.536;12.688;2023-09-19T09:46:20;20.20;99.90
22153;DHT22;11242;50.536;12.688;2023-09-19T09:48:48;20.30;99.90
22153;DHT22;11242;50.536;12.688;2023-09-19T09:51:36;20.50;99.90
22153;DHT22;11242;50.536;12.688;2023-09-19T09:54:15;20.90;99.90
22153;DHT22;11242;50.536;12.688;2023-09-19T09:59:21;20.40;99.90
22153;DHT22;11242;50.536;12.688;2023-09-19T10:01:49;20.00;99.90
22153;DHT22;11242;50.536;12.688;2023-09-19T10:04:28;19.70;99.90
22153;DHT22;11242;50.536;12.688;2023-09-19T10:07:01;19.70;99.90
22153;DHT22;11242;50.536;12.688;2023-09-19T10:09:44;19.70;99.90
22153;DHT22;11242;50.536;12.688;2023-09-19T10:12:10;19.90;99.90
22153;DHT22;11242;50.536;12.688;2023-09-19T10:14:38;20.00;99.90
22153;DHT22;11242;50.536;12.688;2023-09-19T10:17:10;20.30;99.90
22153;DHT22;11242;50.536;12.688;2023-09-19T10:19:55;20.30;99.90
22153;DHT22;11242;50.536;12.688;2023-09-19T10:22:24;20.40;99.90
22153;DHT22;11242;50.536;12.688;2023-09-19T10:24:53;20.40;99.90
22153;DHT22;11242;50.536;12.688;2023-09-19T10:27:20;20.30;99.90
22153;DHT22;11242;50.536;12.688;2023-09-19T10:29:49;20.20;99.90
22153;DHT22;11242;50.536;12.688;2023-09-19T10:32:21;20.30;99.90
22153;DHT22;11242;50.536;12.688;2023-09-19T10:34:47;20.20;99.90
22153;DHT22;11242;50.536;12.688;2023-09-19T10:37:16;20.10;99.90
22153;DHT22;11242;50.536;12.688;2023-09-19T10:39:46;20.20;99.90
22153;DHT22;11242;50.536;12.688;2023-09-19T10:42:16;20.30;99.90
22153;DHT22;11242;50.536;12.688;2023-09-19T10:44:45;20.40;99.90
22153;DHT22;11242;50.536;12.688;2023-09-19T10:47:13;20.60;99.20
22153;DHT22;11242;50.536;12.688;2023-09-19T10:49:49;20.50;99.90
22153;DHT22;11242;50.536;12.688;2023-09-19T10:52:18;20.20;99.90
22153;DHT22;11242;50.536;12.688;2023-09-19T10:54:51;20.10;99.90
22153;DHT22;11242;50.536;12.688;2023-09-19T10:57:21;20.10;99.90
22153;DHT22;11242;50.536;12.688;2023-09-19T11:03:22;19.90;99.90
22153;DHT22;11242;50.536;12.688;2023-09-19T11:08:57;20.90;99.90
22153;DHT22;11242;50.536;12.688;2023-09-19T11:11:44;21.00;99.90
22153;DHT22;11242;50.536;12.688;2023-09-19T11:30:45;21.00;99.90
22153;DHT22;11242;50.536;12.688;2023-09-19T11:33:18;20.90;98.80
22153;DHT22;11242;50.536;12.688;2023-09-19T11:36:10;20.90;99.80
22153;DHT22;11242;50.536;12.688;2023-09-19T11:46:33;20.30;99.10
22153;DHT22;11242;50.536;12.688;2023-09-19T11:49:07;20.30;98.70
22153;DHT22;11242;50.536;12.688;2023-09-19T11:51:42;20.40;99.50
22153;DHT22;11242;50.536;12.688;2023-09-19T11:54:13;20.30;99.20
22153;DHT22;11242;50.536;12.688;2023-09-19T11:56:44;20.40;98.50
22153;DHT22;11242;50.536;12.688;2023-09-19T11:59:11;20.50;98.00
22153;DHT22;11242;50.536;12.688;2023-09-19T12:01:38;20.50;97.90
22153;DHT22;11242;50.536;12.688;2023-09-19T12:04:11;20.40;99.50
22153;DHT22;11242;50.536;12.688;2023-09-19T12:06:37;20.40;98.80
22153;DHT22;11242;50.536;12.688;2023-09-19T12:09:12;20.60;99.50
22153;DHT22;11242;50.536;12.688;2023-09-19T12:11:42;20.60;99.60
22153;DHT22;11242;50.536;12.688;2023-09-19T12:14:10;20.60;98.80
22153;DHT22;11242;50.536;12.688;2023-09-19T12:16:35;20.60;99.30
22153;DHT22;11242;50.536;12.688;2023-09-19T12:19:21;20.70;99.00
22153;DHT22;11242;50.536;12.688;2023-09-19T12:22:05;20.40;99.60
22153;DHT22;11242;50.536;12.688;2023-09-19T12:24:32;20.00;99.80
22153;DHT22;11242;50.536;12.688;2023-09-19T12:27:05;20.00;99.90
22153;DHT22;11242;50.536;12.688;2023-09-19T12:29:41;20.30;99.10
22153;DHT22;11242;50.536;12.688;2023-09-19T12:32:07;20.60;99.90
22153;DHT22;11242;50.536;12.688;2023-09-19T12:34:33;20.80;99.90
22153;DHT22;11242;50.536;12.688;2023-09-19T12:37:08;20.80;98.90
22153;DHT22;11242;50.536;12.688;2023-09-19T12:39:45;21.00;98.70
22153;DHT22;11242;50.536;12.688;2023-09-19T12:42:26;21.10;99.10
22153;DHT22;11242;50.536;12.688;2023-09-19T12:44:59;21.40;98.70
22153;DHT22;11242;50.536;12.688;2023-09-19T12:47:27;21.40;98.60
22153;DHT22;11242;50.536;12.688;2023-09-19T12:50:14;21.30;98.40
22153;DHT22;11242;50.536;12.688;2023-09-19T12:55:20;20.80;97.50
22153;DHT22;11242;50.536;12.688;2023-09-19T12:58:13;20.80;97.30
22153;DHT22;11242;50.536;12.688;2023-09-19T13:00:44;20.60;98.40
22153;DHT22;11242;50.536;12.688;2023-09-19T13:06:02;19.90;96.80
22153;DHT22;11242;50.536;12.688;2023-09-19T13:08:31;19.80;96.20
22153;DHT22;11242;50.536;12.688;2023-09-19T13:11:08;20.20;95.90
22153;DHT22;11242;50.536;12.688;2023-09-19T13:13:41;20.60;95.30
22153;DHT22;11242;50.536;12.688;2023-09-19T13:16:07;20.60;94.10
22153;DHT22;11242;50.536;12.688;2023-09-19T13:18:44;20.40;93.50
22153;DHT22;11242;50.536;12.688;2023-09-19T13:21:12;20.10;93.10
22153;DHT22;11242;50.536;12.688;2023-09-19T13:23:43;20.00;92.70
22153;DHT22;11242;50.536;12.688;2023-09-19T13:26:10;19.90;92.80
22153;DHT22;11242;50.536;12.688;2023-09-19T13:28:37;19.80;92.30
22153;DHT22;11242;50.536;12.688;2023-09-19T13:31:03;19.80;92.40
22153;DHT22;11242;50.536;12.688;2023-09-19T13:33:29;19.80;92.90
22153;DHT22;11242;50.536;12.688;2023-09-19T13:35:54;20.00;93.30
22153;DHT22;11242;50.536;12.688;2023-09-19T13:38:21;20.00;93.30
22153;DHT22;11242;50.536;12.688;2023-09-19T13:40:48;20.00;93.50
22153;DHT22;11242;50.536;12.688;2023-09-19T13:43:13;20.00;93.80
22153;DHT22;11242;50.536;12.688;2023-09-19T13:45:40;20.00;94.20
22153;DHT22;11242;50.536;12.688;2023-09-19T13:48:09;20.10;93.10
22153;DHT22;11242;50.536;12.688;2023-09-19T13:50:36;20.10;91.60
22153;DHT22;11242;50.536;12.688;2023-09-19T13:53:08;20.00;91.50
22153;DHT22;11242;50.536;12.688;2023-09-19T13:55:33;20.00;92.30
22153;DHT22;11242;50.536;12.688;2023-09-19T13:57:59;19.90;92.20
22153;DHT22;11242;50.536;12.688;2023-09-19T14:00:25;19.80;91.50
22153;DHT22;11242;50.536;12.688;2023-09-19T14:02:51;19.90;91.80
22153;DHT22;11242;50.536;12.688;2023-09-19T14:05:17;20.00;92.00
22153;DHT22;11242;50.536;12.688;2023-09-19T14:07:44;19.90;91.90
22153;DHT22;11242;50.536;12.688;2023-09-19T14:10:11;19.80;91.90
22153;DHT22;11242;50.536;12.688;2023-09-19T14:12:37;19.70;92.50
22153;DHT22;11242;50.536;12.688;2023-09-19T14:15:07;19.60;92.20
22153;DHT22;11242;50.536;12.688;2023-09-19T14:17:34;19.60;92.80
22153;DHT22;11242;50.536;12.688;2023-09-19T14:19:59;19.60;93.10
22153;DHT22;11242;50.536;12.688;2023-09-19T14:22:25;19.50;92.50
22153;DHT22;11242;50.536;12.688;2023-09-19T14:24:51;19.40;91.90
22153;DHT22;11242;50.536;12.688;2023-09-19T14:27:17;19.40;92.40
22153;DHT22;11242;50.536;12.688;2023-09-19T14:29:42;19.30;92.70
22153;DHT22;11242;50.536;12.688;2023-09-19T14:32:08;19.40;93.00
22153;DHT22;11242;50.536;12.688;2023-09-19T14:34:34;19.50;93.10
22153;DHT22;11242;50.536;12.688;2023-09-19T14:37:02;19.30;93.00
22153;DHT22;11242;50.536;12.688;2023-09-19T14:39:27;19.10;93.80
22153;DHT22;11242;50.536;12.688;2023-09-19T14:41:53;18.90;94.40
22153;DHT22;11242;50.536;12.688;2023-09-19T14:44:19;18.90;94.20
22153;DHT22;11242;50.536;12.688;2023-09-19T14:46:45;19.00;95.70
22153;DHT22;11242;50.536;12.688;2023-09-19T14:49:11;19.00;95.10
22153;DHT22;11242;50.536;12.688;2023-09-19T14:51:38;19.00;95.20
22153;DHT22;11242;50.536;12.688;2023-09-19T14:54:05;19.10;94.90
22153;DHT22;11242;50.536;12.688;2023-09-19T14:56:33;19.00;95.20
22153;DHT22;11242;50.536;12.688;2023-09-19T14:58:58;18.90;95.10
22153;DHT22;11242;50.536;12.688;2023-09-19T15:01:24;18.90;94.70
22153;DHT22;11242;50.536;12.688;2023-09-19T15:03:50;18.90;94.90
22153;DHT22;11242;50.536;12.688;2023-09-19T15:06:16;18.70;94.40
22153;DHT22;11242;50.536;12.688;2023-09-19T15:08:46;18.60;94.70
22153;DHT22;11242;50.536;12.688;2023-09-19T15:11:13;18.60;95.00
22153;DHT22;11242;50.536;12.688;2023-09-19T15:13:42;18.50;95.60
22153;DHT22;11242;50.536;12.688;2023-09-19T15:16:09;18.50;95.60
22153;DHT22;11242;50.536;12.688;2023-09-19T15:18:40;18.60;95.70
22153;DHT22;11242;50.536;12.688;2023-09-19T15:21:07;18.50;94.90
22153;DHT22;11242;50.536;12.688;2023-09-19T15:23:34;18.50;93.30
22153;DHT22;11242;50.536;12.688;2023-09-19T15:26:00;18.40;93.60
22153;DHT22;11242;50.536;12.688;2023-09-19T15:28:27;18.30;93.70
22153;DHT22;11242;50.536;12.688;2023-09-19T15:31:10;18.30;93.40
22153;DHT22;11242;50.536;12.688;2023-09-19T15:33:37;18.20;93.20
22153;DHT22;11242;50.536;12.688;2023-09-19T15:36:11;18.10;93.00
22153;DHT22;11242;50.536;12.688;2023-09-19T15:39:05;18.10;93.50
22153;DHT22;11242;50.536;12.688;2023-09-19T15:41:38;18.00;93.90
22153;DHT22;11242;50.536;12.688;2023-09-19T15:44:10;18.00;94.30
22153;DHT22;11242;50.536;12.688;2023-09-19T15:46:35;18.00;94.70
22153;DHT22;11242;50.536;12.688;2023-09-19T15:49:02;17.90;94.90
22153;DHT22;11242;50.536;12.688;2023-09-19T15:51:28;17.90;94.80
22153;DHT22;11242;50.536;12.688;2023-09-19T15:53:56;17.80;95.20
22153;DHT22;11242;50.536;12.688;2023-09-19T15:56:23;17.80;94.90
22153;DHT22;11242;50.536;12.688;2023-09-19T15:58:50;17.70;95.30
22153;DHT22;11242;50.536;12.688;2023-09-19T16:01:17;17.60;95.70
22153;DHT22;11242;50.536;12.688;2023-09-19T16:03:47;17.60;95.40
22153;DHT22;11242;50.536;12.688;2023-09-19T16:06:15;17.50;96.30
22153;DHT22;11242;50.536;12.688;2023-09-19T16:08:45;17.50;96.50
22153;DHT22;11242;50.536;12.688;2023-09-19T16:11:12;17.40;96.60
22153;DHT22;11242;50.536;12.688;2023-09-19T16:13:39;17.40;96.70
22153;DHT22;11242;50.536;12.688;2023-09-19T16:16:07;17.30;97.20
22153;DHT22;11242;50.536;12.688;2023-09-19T16:18:33;17.20;97.30
22153;DHT22;11242;50.536;12.688;2023-09-19T16:21:03;17.20;97.70
22153;DHT22;11242;50.536;12.688;2023-09-19T16:23:29;17.10;98.20
22153;DHT22;11242;50.536;12.688;2023-09-19T16:26:02;17.00;98.40